Time;durP1;ratioP1;P1;durP2;ratioP2;P2;SDS_P1;SDS_P2;PMS_P1;PMS_P2;Temp;Humidity;BMP_temperature;BMP_pressure;BME280_temperature;BME280_humidity;BME280_pressure;Samples;Min_cycle;Max_cycle;Signal;HPM_P1;HPM_P2
2022/01/03 00:00:27;;;;;;;9.53;5.30;;;;;;;;;;5060944;28;20480;-79
2022/01/03 00:02:54;;;;;;;7.63;5.20;;;;;;;;;;5058029;28;20467;-79
2022/01/03 00:05:22;;;;;;;15.53;5.13;;;;;;;;;;5061633;28;20946;-78
2022/01/03 00:07:48;;;;;;;11.60;5.00;;;;;;;;;;5059076;28;20475;-78
2022/01/03 00:10:15;;;;;;;6.87;2.53;;;;;;;;;;5057675;28;20454;-77
2022/01/03 00:12:42;;;;;;;4.97;2.20;;;;;;;;;;5058175;28;20467;-79
2022/01/03 00:15:10;;;;;;;3.17;1.00;;;;;;;;;;5060228;28;20440;-78
2022/01/03 00:17:36;;;;;;;0.83;0.70;;;;;;;;;;5058604;28;20466;-79
2022/01/03 00:20:03;;;;;;;1.07;0.70;;;;;;;;;;5059367;28;20452;-79
2022/01/03 00:22:35;;;;;;;2.20;0.70;;;;;;;;;;5059956;28;20516;-78
2022/01/03 00:25:04;;;;;;;1.30;0.90;;;;;;;;;;5059716;28;20538;-78
2022/01/03 00:27:34;;;;;;;1.17;0.77;;;;;;;;;;5057694;28;20475;-78
2022/01/03 00:30:00;;;;;;;1.87;0.97;;;;;;;;;;5057733;28;20451;-75
2022/01/03 00:32:27;;;;;;;1.67;0.80;;;;;;;;;;5058857;28;20476;-78
2022/01/03 00:34:56;;;;;;;2.17;0.70;;;;;;;;;;5059293;28;20452;-77
2022/01/03 00:37:24;;;;;;;4.33;1.30;;;;;;;;;;5059328;28;20467;-78
2022/01/03 00:39:52;;;;;;;0.70;0.70;;;;;;;;;;5058367;28;20521;-77
2022/01/03 00:42:19;;;;;;;2.63;0.90;;;;;;;;;;5057279;28;20472;-79
2022/01/03 00:44:46;;;;;;;3.00;0.90;;;;;;;;;;5059970;28;20440;-78
2022/01/03 00:47:13;;;;;;;2.33;0.87;;;;;;;;;;5059080;28;20467;-78
2022/01/03 00:49:40;;;;;;;7.23;1.10;;;;;;;;;;5059720;28;20501;-78
2022/01/03 00:52:06;;;;;;;2.60;1.17;;;;;;;;;;5057139;28;20479;-78
2022/01/03 00:54:32;;;;;;;2.10;1.10;;;;;;;;;;5059669;28;20456;-78
2022/01/03 00:57:04;;;;;;;4.57;0.90;;;;;;;;;;5057195;28;20470;-79
2022/01/03 00:59:32;;;;;;;3.47;1.43;;;;;;;;;;5058849;28;20505;-78
2022/01/03 01:02:00;;;;;;;5.93;1.00;;;;;;;;;;5058374;28;20480;-78
2022/01/03 01:04:27;;;;;;;5.70;0.87;;;;;;;;;;5059059;28;20443;-78
2022/01/03 01:06:54;;;;;;;5.30;1.20;;;;;;;;;;5057750;28;20988;-78
2022/01/03 01:09:21;;;;;;;3.50;1.43;;;;;;;;;;5058860;28;21065;-78
2022/01/03 01:11:47;;;;;;;3.80;1.40;;;;;;;;;;5059088;28;20870;-79
2022/01/03 01:14:15;;;;;;;2.63;0.90;;;;;;;;;;5058136;28;20487;-78
2022/01/03 01:16:41;;;;;;;2.60;0.90;;;;;;;;;;5058628;28;20505;-78
2022/01/03 01:19:08;;;;;;;2.43;0.80;;;;;;;;;;5058529;28;20484;-78
2022/01/03 01:21:35;;;;;;;1.10;0.73;;;;;;;;;;5055294;28;20479;-79
2022/01/03 01:24:01;;;;;;;3.43;0.80;;;;;;;;;;5058085;28;20451;-79
2022/01/03 01:29:12;;;;;;;2.40;0.70;;;;;;;;;;5058563;28;20467;-78
2022/01/03 01:31:44;;;;;;;0.80;0.80;;;;;;;;;;5056324;28;20525;-79
2022/01/03 01:34:14;;;;;;;2.50;0.70;;;;;;;;;;5059301;28;20459;-78
2022/01/03 01:36:42;;;;;;;2.27;0.60;;;;;;;;;;5058565;28;20472;-79
2022/01/03 01:39:10;;;;;;;6.77;1.03;;;;;;;;;;5059017;28;20483;-79
2022/01/03 01:41:38;;;;;;;3.93;1.07;;;;;;;;;;5057590;28;20847;-78
2022/01/03 01:44:07;;;;;;;5.17;1.20;;;;;;;;;;5056848;28;20539;-78
2022/01/03 01:46:34;;;;;;;1.60;1.03;;;;;;;;;;5058060;28;20505;-79
2022/01/03 01:49:04;;;;;;;2.87;1.40;;;;;;;;;;5058788;28;20493;-79
2022/01/03 01:51:34;;;;;;;4.30;1.37;;;;;;;;;;5057767;28;20484;-78
2022/01/03 01:54:04;;;;;;;8.10;2.73;;;;;;;;;;5058369;28;20455;-78
2022/01/03 01:56:39;;;;;;;8.80;2.17;;;;;;;;;;5058490;28;20475;-78
2022/01/03 01:59:13;;;;;;;4.80;2.10;;;;;;;;;;5058152;28;20544;-78
2022/01/03 02:01:47;;;;;;;5.20;2.70;;;;;;;;;;5058147;28;20475;-78
2022/01/03 02:04:20;;;;;;;5.53;2.60;;;;;;;;;;5058545;28;20461;-78
2022/01/03 02:06:47;;;;;;;5.80;2.40;;;;;;;;;;5057460;28;20462;-78
2022/01/03 02:09:19;;;;;;;4.43;1.53;;;;;;;;;;5057795;28;20439;-78
2022/01/03 02:11:50;;;;;;;4.57;1.80;;;;;;;;;;5055836;28;20907;-78
2022/01/03 02:14:16;;;;;;;4.60;2.50;;;;;;;;;;5054980;28;20535;-78
2022/01/03 02:16:43;;;;;;;5.57;2.57;;;;;;;;;;5057397;28;20471;-76
2022/01/03 02:19:09;;;;;;;7.17;2.43;;;;;;;;;;5057283;28;20569;-78
2022/01/03 02:21:37;;;;;;;11.80;3.20;;;;;;;;;;5055350;28;20479;-78
2022/01/03 02:24:03;;;;;;;5.67;2.60;;;;;;;;;;5055849;28;20969;-79
2022/01/03 02:26:30;;;;;;;5.83;2.60;;;;;;;;;;5055734;28;20475;-78
2022/01/03 02:28:56;;;;;;;8.90;2.93;;;;;;;;;;5055510;28;20505;-78
2022/01/03 02:31:23;;;;;;;11.37;3.60;;;;;;;;;;5057735;28;20478;-78
2022/01/03 02:33:50;;;;;;;10.63;3.17;;;;;;;;;;5057324;28;20950;-79
2022/01/03 02:36:16;;;;;;;8.70;4.20;;;;;;;;;;5060766;28;20513;-79
2022/01/03 02:38:44;;;;;;;16.63;4.20;;;;;;;;;;5060521;28;20486;-76
2022/01/03 02:41:10;;;;;;;13.33;4.30;;;;;;;;;;5059598;28;20472;-79
2022/01/03 02:43:36;;;;;;;8.07;3.13;;;;;;;;;;5060824;28;20945;-78
2022/01/03 02:46:03;;;;;;;7.20;2.90;;;;;;;;;;5061687;28;20451;-79
2022/01/03 02:48:30;;;;;;;8.03;3.10;;;;;;;;;;5061282;28;20448;-78
2022/01/03 02:50:56;;;;;;;16.10;3.60;;;;;;;;;;5060874;28;20473;-78
2022/01/03 02:53:23;;;;;;;10.90;2.90;;;;;;;;;;5060435;28;20451;-78
2022/01/03 02:55:51;;;;;;;19.03;3.30;;;;;;;;;;5061268;28;20436;-78
2022/01/03 02:58:17;;;;;;;12.70;3.57;;;;;;;;;;5059160;28;20471;-79
2022/01/03 03:00:47;;;;;;;13.60;4.47;;;;;;;;;;5060691;28;20467;-78
2022/01/03 03:03:14;;;;;;;15.90;3.67;;;;;;;;;;5060540;28;20540;-79
2022/01/03 03:05:41;;;;;;;13.33;3.50;;;;;;;;;;5061891;28;20458;-79
2022/01/03 03:08:07;;;;;;;14.30;3.30;;;;;;;;;;5060180;28;20471;-78
2022/01/03 03:10:34;;;;;;;12.17;4.83;;;;;;;;;;5061003;28;20455;-78
2022/01/03 03:13:01;;;;;;;11.23;3.93;;;;;;;;;;5059332;28;20475;-78
2022/01/03 03:15:27;;;;;;;12.60;3.40;;;;;;;;;;5059374;28;20454;-78
2022/01/03 03:17:54;;;;;;;14.37;3.60;;;;;;;;;;5057422;28;20478;-79
2022/01/03 03:20:21;;;;;;;10.30;3.20;;;;;;;;;;5060846;28;20490;-78
2022/01/03 03:22:49;;;;;;;12.23;3.47;;;;;;;;;;5059409;28;20471;-78
2022/01/03 03:25:16;;;;;;;15.60;4.40;;;;;;;;;;5057720;28;20866;-78
2022/01/03 03:27:44;;;;;;;16.10;3.43;;;;;;;;;;5059707;28;21008;-78
2022/01/03 03:30:13;;;;;;;19.33;4.40;;;;;;;;;;5059481;28;20451;-78
2022/01/03 03:32:39;;;;;;;14.60;3.93;;;;;;;;;;5058934;28;20479;-78
2022/01/03 03:35:06;;;;;;;9.37;3.77;;;;;;;;;;5059683;28;20955;-78
2022/01/03 03:37:32;;;;;;;16.23;4.07;;;;;;;;;;5060016;28;20467;-78
2022/01/03 03:39:58;;;;;;;13.73;4.50;;;;;;;;;;5059031;28;20512;-78
2022/01/03 03:42:25;;;;;;;17.83;4.43;;;;;;;;;;5057807;28;20524;-78
2022/01/03 03:44:51;;;;;;;14.77;3.80;;;;;;;;;;5060599;28;21022;-79
2022/01/03 03:47:18;;;;;;;16.23;4.17;;;;;;;;;;5058249;28;20466;-78
2022/01/03 03:49:45;;;;;;;20.17;5.30;;;;;;;;;;5058227;28;20458;-78
2022/01/03 03:52:11;;;;;;;12.50;4.40;;;;;;;;;;5059579;28;20474;-78
2022/01/03 03:54:37;;;;;;;19.97;4.30;;;;;;;;;;5060591;28;20447;-78
2022/01/03 03:57:05;;;;;;;13.30;3.80;;;;;;;;;;5059523;28;20476;-78
2022/01/03 03:59:32;;;;;;;18.73;4.70;;;;;;;;;;5059479;28;20526;-79
2022/01/03 04:01:58;;;;;;;15.27;4.40;;;;;;;;;;5058203;28;20533;-79
2022/01/03 04:04:26;;;;;;;19.90;5.23;;;;;;;;;;5059461;28;20821;-78
2022/01/03 04:06:52;;;;;;;13.00;5.20;;;;;;;;;;5058728;28;21050;-78
2022/01/03 04:09:19;;;;;;;20.63;4.80;;;;;;;;;;5058680;28;20444;-77
2022/01/03 04:11:45;;;;;;;18.10;5.20;;;;;;;;;;5059050;28;20912;-78
2022/01/03 04:14:11;;;;;;;16.37;5.03;;;;;;;;;;5057323;28;20447;-78
2022/01/03 04:16:38;;;;;;;15.13;5.50;;;;;;;;;;5059071;28;20521;-78
2022/01/03 04:19:05;;;;;;;9.90;4.60;;;;;;;;;;5058728;28;20472;-78
2022/01/03 04:21:32;;;;;;;18.97;5.83;;;;;;;;;;5058456;28;20484;-78
2022/01/03 04:23:58;;;;;;;15.20;5.30;;;;;;;;;;5056802;28;20444;-77
2022/01/03 04:26:25;;;;;;;22.43;5.57;;;;;;;;;;5057604;28;20474;-79
2022/01/03 04:28:51;;;;;;;19.93;4.23;;;;;;;;;;5057728;28;20953;-78
2022/01/03 04:31:17;;;;;;;17.77;5.33;;;;;;;;;;5057310;28;20487;-78
2022/01/03 04:33:44;;;;;;;15.93;5.53;;;;;;;;;;5059926;28;20448;-78
2022/01/03 04:36:10;;;;;;;24.83;4.47;;;;;;;;;;5058508;28;20447;-78
2022/01/03 04:38:38;;;;;;;21.97;5.20;;;;;;;;;;5057122;28;20533;-78
2022/01/03 04:41:04;;;;;;;15.70;3.53;;;;;;;;;;5056900;28;20483;-78
2022/01/03 04:43:33;;;;;;;22.57;4.00;;;;;;;;;;5056461;28;20577;-78
2022/01/03 04:45:59;;;;;;;21.13;5.80;;;;;;;;;;5057176;28;20459;-77
2022/01/03 04:48:26;;;;;;;18.87;6.03;;;;;;;;;;5058645;28;20956;-78
2022/01/03 04:50:52;;;;;;;26.00;6.50;;;;;;;;;;5056898;28;20893;-78
2022/01/03 04:53:20;;;;;;;32.70;4.30;;;;;;;;;;5057676;28;20471;-78
2022/01/03 04:55:47;;;;;;;20.13;4.73;;;;;;;;;;5058191;28;20941;-78
2022/01/03 04:58:14;;;;;;;17.83;4.87;;;;;;;;;;5055427;28;20887;-78
2022/01/03 05:00:40;;;;;;;21.00;4.43;;;;;;;;;;5057655;28;21019;-78
2022/01/03 05:03:06;;;;;;;17.40;5.13;;;;;;;;;;5057847;28;20491;-78
2022/01/03 05:05:32;;;;;;;10.83;5.37;;;;;;;;;;5058228;28;20443;-78
2022/01/03 05:07:59;;;;;;;15.93;4.80;;;;;;;;;;5056535;28;20468;-76
2022/01/03 05:10:25;;;;;;;12.80;3.90;;;;;;;;;;5057580;28;20454;-77
2022/01/03 05:12:53;;;;;;;18.40;4.30;;;;;;;;;;5057651;28;21000;-78
2022/01/03 05:15:19;;;;;;;18.13;3.80;;;;;;;;;;5058407;28;20863;-78
2022/01/03 05:17:45;;;;;;;19.80;4.83;;;;;;;;;;5057634;28;20472;-77
2022/01/03 05:20:12;;;;;;;21.40;4.60;;;;;;;;;;5057122;28;20517;-79
2022/01/03 05:22:39;;;;;;;19.63;4.33;;;;;;;;;;5056370;28;20562;-79
2022/01/03 05:25:06;;;;;;;31.37;6.00;;;;;;;;;;5056469;28;20444;-79
2022/01/03 05:27:33;;;;;;;27.60;5.63;;;;;;;;;;5055360;28;20526;-79
2022/01/03 05:30:01;;;;;;;23.63;5.67;;;;;;;;;;5057180;28;20459;-78
2022/01/03 05:32:27;;;;;;;22.70;4.33;;;;;;;;;;5056632;28;21064;-78
2022/01/03 05:34:53;;;;;;;17.73;4.63;;;;;;;;;;5058163;28;20439;-78
2022/01/03 05:37:19;;;;;;;21.00;4.90;;;;;;;;;;5058205;28;20869;-78
2022/01/03 05:39:46;;;;;;;35.77;6.40;;;;;;;;;;5056905;28;20495;-78
2022/01/03 05:42:12;;;;;;;17.93;4.70;;;;;;;;;;5055702;28;20848;-78
2022/01/03 05:44:38;;;;;;;20.70;4.70;;;;;;;;;;5057627;28;20502;-78
2022/01/03 05:47:06;;;;;;;25.20;6.10;;;;;;;;;;5057988;28;20902;-78
2022/01/03 05:49:32;;;;;;;16.23;4.63;;;;;;;;;;5057304;28;20444;-78
2022/01/03 05:51:59;;;;;;;17.90;5.63;;;;;;;;;;5057344;28;20475;-78
2022/01/03 05:54:25;;;;;;;18.00;5.30;;;;;;;;;;5057753;28;20451;-78
2022/01/03 05:56:52;;;;;;;13.10;4.30;;;;;;;;;;5056293;28;20521;-78
2022/01/03 05:59:18;;;;;;;15.47;4.57;;;;;;;;;;5057836;28;20447;-78
2022/01/03 06:01:46;;;;;;;19.67;6.73;;;;;;;;;;5057718;28;20479;-78
2022/01/03 06:04:20;;;;;;;20.13;5.50;;;;;;;;;;5058318;28;20451;-77
2022/01/03 06:06:55;;;;;;;23.57;4.57;;;;;;;;;;5057160;28;20467;-78
2022/01/03 06:09:22;;;;;;;27.10;6.37;;;;;;;;;;5057412;28;20807;-78
2022/01/03 06:11:48;;;;;;;22.27;5.23;;;;;;;;;;5056962;28;20503;-78
2022/01/03 06:14:15;;;;;;;27.70;5.23;;;;;;;;;;5058277;28;20868;-78
2022/01/03 06:16:41;;;;;;;14.00;6.17;;;;;;;;;;5057847;28;20883;-78
2022/01/03 06:19:07;;;;;;;18.93;6.23;;;;;;;;;;5055704;28;20444;-78
2022/01/03 06:21:40;;;;;;;14.60;4.73;;;;;;;;;;5057682;28;20894;-78
2022/01/03 06:24:07;;;;;;;27.90;6.33;;;;;;;;;;5057756;28;20463;-78
2022/01/03 06:26:33;;;;;;;24.33;5.40;;;;;;;;;;5054972;28;21067;-78
2022/01/03 06:28:59;;;;;;;23.43;4.43;;;;;;;;;;5057492;28;20874;-78
2022/01/03 06:31:25;;;;;;;17.90;4.77;;;;;;;;;;5056711;28;20892;-78
2022/01/03 06:33:52;;;;;;;26.57;5.60;;;;;;;;;;5056881;28;20444;-78
2022/01/03 06:36:18;;;;;;;22.07;5.57;;;;;;;;;;5055135;28;20472;-78
2022/01/03 06:38:45;;;;;;;16.00;5.13;;;;;;;;;;5056520;28;20501;-77
2022/01/03 06:41:12;;;;;;;22.43;7.23;;;;;;;;;;5055479;28;20826;-78
2022/01/03 06:43:38;;;;;;;19.97;5.80;;;;;;;;;;5057715;28;20489;-78
2022/01/03 06:46:04;;;;;;;24.80;5.53;;;;;;;;;;5056470;28;20520;-78
2022/01/03 06:48:31;;;;;;;16.17;4.57;;;;;;;;;;5057740;28;21010;-78
2022/01/03 06:50:57;;;;;;;16.13;4.90;;;;;;;;;;5056815;28;20984;-77
2022/01/03 06:53:23;;;;;;;19.43;4.80;;;;;;;;;;5057843;28;20868;-78
2022/01/03 06:55:51;;;;;;;24.80;5.30;;;;;;;;;;5057527;28;20456;-78
2022/01/03 06:58:17;;;;;;;22.43;5.03;;;;;;;;;;5056732;28;21069;-78
2022/01/03 07:00:43;;;;;;;22.60;5.40;;;;;;;;;;5055835;28;20495;-78
2022/01/03 07:03:09;;;;;;;21.03;5.53;;;;;;;;;;5056422;28;20514;-78
2022/01/03 07:05:36;;;;;;;24.97;5.77;;;;;;;;;;5057527;28;20452;-78
2022/01/03 07:08:02;;;;;;;16.43;4.70;;;;;;;;;;5056855;28;21025;-78
2022/01/03 07:10:28;;;;;;;20.33;4.60;;;;;;;;;;5055054;28;20464;-77
2022/01/03 07:12:56;;;;;;;23.20;5.23;;;;;;;;;;5056927;28;20472;-78
2022/01/03 07:20:51;;;;;;;25.00;5.30;;;;;;;;;;5059262;28;20469;-78
2022/01/03 07:23:19;;;;;;;21.50;6.00;;;;;;;;;;5059238;28;20464;-77
2022/01/03 07:25:45;;;;;;;22.80;5.03;;;;;;;;;;5060318;28;20455;-79
2022/01/03 07:28:13;;;;;;;24.70;4.73;;;;;;;;;;5057602;28;21326;-78
2022/01/03 07:30:39;;;;;;;19.87;4.90;;;;;;;;;;5059534;28;20521;-78
2022/01/03 07:33:05;;;;;;;25.47;5.53;;;;;;;;;;5058241;28;20525;-78
2022/01/03 07:35:32;;;;;;;34.93;6.43;;;;;;;;;;5060234;28;21011;-78
2022/01/03 07:37:59;;;;;;;22.60;5.50;;;;;;;;;;5059688;28;20474;-76
2022/01/03 07:40:25;;;;;;;25.47;7.13;;;;;;;;;;5059122;28;20490;-78
2022/01/03 07:42:52;;;;;;;27.23;5.80;;;;;;;;;;5058443;28;20472;-78
2022/01/03 07:45:19;;;;;;;23.40;5.70;;;;;;;;;;5058885;28;20451;-78
2022/01/03 07:47:46;;;;;;;22.10;4.53;;;;;;;;;;5057900;28;20530;-78
2022/01/03 07:50:12;;;;;;;28.00;5.83;;;;;;;;;;5058399;28;20447;-78
2022/01/03 07:52:38;;;;;;;19.00;4.17;;;;;;;;;;5058045;28;20468;-78
2022/01/03 07:55:06;;;;;;;22.03;7.20;;;;;;;;;;5060302;28;20444;-78
2022/01/03 07:57:33;;;;;;;26.70;5.13;;;;;;;;;;5059245;28;20498;-78
2022/01/03 07:59:59;;;;;;;24.13;5.60;;;;;;;;;;5058924;28;20456;-78
2022/01/03 08:02:28;;;;;;;25.77;5.40;;;;;;;;;;5059360;28;20521;-78
2022/01/03 08:04:55;;;;;;;26.57;5.60;;;;;;;;;;5059735;28;20455;-78
2022/01/03 08:07:21;;;;;;;22.37;4.97;;;;;;;;;;5059179;28;20459;-78
2022/01/03 08:09:47;;;;;;;20.80;6.20;;;;;;;;;;5058976;28;20466;-77
2022/01/03 08:12:14;;;;;;;25.60;6.00;;;;;;;;;;5057725;28;20525;-78
2022/01/03 08:14:40;;;;;;;17.80;5.47;;;;;;;;;;5059041;28;20443;-78
2022/01/03 08:17:06;;;;;;;21.70;5.53;;;;;;;;;;5058596;28;20472;-78
2022/01/03 08:19:34;;;;;;;18.20;5.30;;;;;;;;;;5060453;28;20447;-78
2022/01/03 08:22:00;;;;;;;20.60;5.93;;;;;;;;;;5057963;28;20487;-78
2022/01/03 08:24:27;;;;;;;28.20;5.80;;;;;;;;;;5057325;28;20504;-78
2022/01/03 08:26:54;;;;;;;19.10;4.97;;;;;;;;;;5054505;28;20476;-78
2022/01/03 08:29:20;;;;;;;17.23;5.03;;;;;;;;;;5058473;28;20959;-78
2022/01/03 08:31:46;;;;;;;24.87;5.47;;;;;;;;;;5055932;28;20472;-78
2022/01/03 08:34:13;;;;;;;24.33;5.70;;;;;;;;;;5059028;28;20946;-78
2022/01/03 08:36:40;;;;;;;19.10;4.90;;;;;;;;;;5057564;28;20479;-77
2022/01/03 08:39:09;;;;;;;24.37;4.83;;;;;;;;;;5059487;28;20810;-77
2022/01/03 08:41:35;;;;;;;26.47;6.10;;;;;;;;;;5057822;28;21011;-77
2022/01/03 08:44:01;;;;;;;19.50;4.53;;;;;;;;;;5058843;28;20960;-79
2022/01/03 08:46:28;;;;;;;28.43;7.00;;;;;;;;;;5057352;28;20471;-78
2022/01/03 08:48:54;;;;;;;23.03;6.40;;;;;;;;;;5056870;28;20466;-78
2022/01/03 08:51:21;;;;;;;19.90;5.30;;;;;;;;;;5056510;28;20482;-78
2022/01/03 08:53:48;;;;;;;19.57;5.10;;;;;;;;;;5058767;28;20447;-78
2022/01/03 08:56:15;;;;;;;27.97;7.33;;;;;;;;;;5057139;28;20444;-78
2022/01/03 08:58:41;;;;;;;24.83;5.80;;;;;;;;;;5059039;28;20447;-78
2022/01/03 09:01:07;;;;;;;19.93;4.97;;;;;;;;;;5057673;28;20483;-77
2022/01/03 09:03:33;;;;;;;24.57;6.70;;;;;;;;;;5057320;28;20444;-78
2022/01/03 09:06:00;;;;;;;23.97;5.93;;;;;;;;;;5057590;28;20450;-77
2022/01/03 09:08:26;;;;;;;20.43;6.17;;;;;;;;;;5058966;28;20458;-79
2022/01/03 09:10:54;;;;;;;18.60;4.50;;;;;;;;;;5057552;28;20464;-78
2022/01/03 09:13:21;;;;;;;23.23;7.37;;;;;;;;;;5040111;28;20954;-80
2022/01/03 09:15:48;;;;;;;23.37;6.13;;;;;;;;;;5039454;28;20969;-78
2022/01/03 09:18:15;;;;;;;25.77;5.80;;;;;;;;;;5038885;28;20472;-78
2022/01/03 09:20:42;;;;;;;47.90;6.50;;;;;;;;;;5038585;28;21004;-78
2022/01/03 09:23:12;;;;;;;24.17;4.97;;;;;;;;;;5038527;28;20878;-78
2022/01/03 09:31:07;;;;;;;32.60;6.10;;;;;;;;;;5058257;28;20884;-78
2022/01/03 09:33:34;;;;;;;18.10;5.63;;;;;;;;;;5058971;28;20454;-78
2022/01/03 09:36:00;;;;;;;26.97;6.13;;;;;;;;;;5058105;28;20452;-78
2022/01/03 09:38:26;;;;;;;27.13;5.97;;;;;;;;;;5059214;28;20440;-78
2022/01/03 09:40:53;;;;;;;21.23;4.77;;;;;;;;;;5058677;28;20482;-77
2022/01/03 09:43:20;;;;;;;18.53;4.97;;;;;;;;;;5056218;28;21199;-78
2022/01/03 09:45:48;;;;;;;29.97;5.13;;;;;;;;;;5058689;28;20451;-78
2022/01/03 09:48:15;;;;;;;23.50;6.43;;;;;;;;;;5038363;28;20473;-77
2022/01/03 09:50:41;;;;;;;18.27;4.53;;;;;;;;;;5038293;28;20483;-78
2022/01/03 09:53:08;;;;;;;30.87;6.07;;;;;;;;;;5037563;28;20468;-78
2022/01/03 09:55:34;;;;;;;19.23;5.83;;;;;;;;;;5038626;28;20440;-78
2022/01/03 09:58:01;;;;;;;21.13;4.27;;;;;;;;;;5037093;28;20545;-78
2022/01/03 10:00:27;;;;;;;20.20;4.13;;;;;;;;;;5038316;28;20460;-78
2022/01/03 10:02:56;;;;;;;20.20;4.67;;;;;;;;;;5037538;28;20526;-78
2022/01/03 10:05:22;;;;;;;20.60;4.80;;;;;;;;;;5037993;28;20448;-78
2022/01/03 10:07:49;;;;;;;26.77;5.00;;;;;;;;;;5037585;28;20467;-78
2022/01/03 10:10:16;;;;;;;21.60;6.27;;;;;;;;;;5036787;28;20445;-78
2022/01/03 10:12:43;;;;;;;13.10;4.90;;;;;;;;;;5037988;28;20972;-76
2022/01/03 10:15:10;;;;;;;22.70;6.23;;;;;;;;;;5038148;28;20548;-79
2022/01/03 10:17:37;;;;;;;15.37;5.27;;;;;;;;;;5039258;28;20504;-78
2022/01/03 10:20:05;;;;;;;21.20;5.03;;;;;;;;;;5038546;28;20490;-77
2022/01/03 10:22:32;;;;;;;17.97;5.83;;;;;;;;;;5038249;28;20518;-78
2022/01/03 10:25:00;;;;;;;19.97;5.30;;;;;;;;;;5037757;28;20454;-78
2022/01/03 10:27:43;;;;;;;33.10;6.00;;;;;;;;;;5037848;28;20468;-78
2022/01/03 10:30:10;;;;;;;15.27;4.57;;;;;;;;;;5039561;28;20456;-78
2022/01/03 10:32:37;;;;;;;19.73;5.20;;;;;;;;;;5038024;28;20468;-78
2022/01/03 10:35:14;;;;;;;18.80;5.67;;;;;;;;;;5037654;28;20507;-78
2022/01/03 10:37:41;;;;;;;22.97;5.17;;;;;;;;;;5043747;28;20464;-78
2022/01/03 10:40:21;;;;;;;14.90;5.13;;;;;;;;;;5048428;28;20543;-78
2022/01/03 10:42:48;;;;;;;22.77;5.47;;;;;;;;;;5039749;28;20472;-78
2022/01/03 10:45:14;;;;;;;20.50;6.20;;;;;;;;;;5036988;28;20499;-77
2022/01/03 10:47:42;;;;;;;20.40;5.20;;;;;;;;;;5038036;28;20820;-77
2022/01/03 10:50:16;;;;;;;22.80;6.70;;;;;;;;;;5037340;28;20449;-78
2022/01/03 10:52:43;;;;;;;27.57;5.93;;;;;;;;;;5038017;28;20468;-78
2022/01/03 10:55:11;;;;;;;23.80;7.07;;;;;;;;;;5039692;28;20475;-78
2022/01/03 10:57:54;;;;;;;16.83;5.23;;;;;;;;;;5040682;28;20468;-78
2022/01/03 11:00:22;;;;;;;16.50;4.93;;;;;;;;;;5041905;28;20448;-79
2022/01/03 11:03:06;;;;;;;20.37;4.70;;;;;;;;;;5040361;28;20529;-78
2022/01/03 11:05:42;;;;;;;21.93;5.63;;;;;;;;;;5039513;28;20923;-78
2022/01/03 11:10:52;;;;;;;21.80;5.60;;;;;;;;;;5041876;28;20862;-78
2022/01/03 11:13:19;;;;;;;18.10;5.00;;;;;;;;;;5041468;28;20526;-78
2022/01/03 11:15:50;;;;;;;27.27;5.93;;;;;;;;;;5041352;28;20958;-78
2022/01/03 11:18:18;;;;;;;22.80;5.80;;;;;;;;;;5040150;28;20578;-77
2022/01/03 11:20:47;;;;;;;24.80;7.53;;;;;;;;;;5041468;28;20486;-78
2022/01/03 11:23:21;;;;;;;21.13;7.90;;;;;;;;;;5040058;28;20472;-78
2022/01/03 11:25:47;;;;;;;27.70;7.70;;;;;;;;;;5040185;28;20946;-78
2022/01/03 11:28:14;;;;;;;48.47;10.13;;;;;;;;;;5040353;28;20472;-78
2022/01/03 11:30:40;;;;;;;22.50;8.80;;;;;;;;;;5041556;28;20480;-78
2022/01/03 11:33:09;;;;;;;19.53;6.77;;;;;;;;;;5039433;28;20487;-78
2022/01/03 11:35:36;;;;;;;25.33;8.73;;;;;;;;;;5040565;28;20448;-76
2022/01/03 11:38:05;;;;;;;22.47;9.20;;;;;;;;;;5039665;28;21079;-78
2022/01/03 11:40:32;;;;;;;15.30;5.00;;;;;;;;;;5039667;28;20513;-78
2022/01/03 11:42:58;;;;;;;19.50;5.27;;;;;;;;;;5039482;28;20986;-79
2022/01/03 11:45:25;;;;;;;18.13;5.50;;;;;;;;;;5041363;28;20441;-78
2022/01/03 11:47:51;;;;;;;27.10;6.87;;;;;;;;;;5055061;28;20907;-78
2022/01/03 11:50:18;;;;;;;17.80;5.27;;;;;;;;;;5060433;28;20451;-78
2022/01/03 11:52:45;;;;;;;21.20;5.63;;;;;;;;;;5058072;28;20503;-78
2022/01/03 11:55:13;;;;;;;30.93;5.70;;;;;;;;;;5060083;28;20443;-78
2022/01/03 12:03:39;;;;;;;12.70;4.10;;;;;;;;;;5059290;28;21041;-78
2022/01/03 12:06:08;;;;;;;27.00;5.90;;;;;;;;;;5059472;28;20491;-78
2022/01/03 12:08:35;;;;;;;15.23;4.90;;;;;;;;;;5059679;28;20447;-79
2022/01/03 12:11:16;;;;;;;22.47;5.47;;;;;;;;;;5058828;28;20529;-78
2022/01/03 12:13:50;;;;;;;26.83;4.67;;;;;;;;;;5059561;28;20482;-77
2022/01/03 12:16:16;;;;;;;17.43;4.20;;;;;;;;;;5059452;28;20479;-78
2022/01/03 12:18:56;;;;;;;19.47;4.60;;;;;;;;;;5058520;28;20444;-78
2022/01/03 12:21:37;;;;;;;22.90;5.63;;;;;;;;;;5058600;28;20479;-78
2022/01/03 12:24:24;;;;;;;18.37;4.70;;;;;;;;;;5057620;28;20452;-78
2022/01/03 12:27:19;;;;;;;17.33;4.70;;;;;;;;;;5059998;28;20468;-79
2022/01/03 12:30:00;;;;;;;24.33;4.80;;;;;;;;;;5059795;28;20463;-79
2022/01/03 12:32:27;;;;;;;15.83;4.40;;;;;;;;;;5059021;28;20479;-79
2022/01/03 12:35:08;;;;;;;21.60;5.83;;;;;;;;;;5060244;28;20448;-79
2022/01/03 12:37:34;;;;;;;24.70;4.90;;;;;;;;;;5057698;28;20472;-79
2022/01/03 12:40:11;;;;;;;18.80;5.03;;;;;;;;;;5060130;28;20447;-79
2022/01/03 12:42:58;;;;;;;23.87;4.73;;;;;;;;;;5057217;28;20898;-79
2022/01/03 12:45:43;;;;;;;11.03;4.13;;;;;;;;;;5060831;28;20443;-79
2022/01/03 12:48:18;;;;;;;20.27;4.30;;;;;;;;;;5058739;28;20537;-78
2022/01/03 12:50:45;;;;;;;20.83;4.73;;;;;;;;;;5060121;28;20570;-79
2022/01/03 12:53:12;;;;;;;16.33;4.70;;;;;;;;;;5057729;28;20471;-79
2022/01/03 12:55:45;;;;;;;21.37;5.80;;;;;;;;;;5059862;28;20444;-78
2022/01/03 12:58:27;;;;;;;19.30;4.80;;;;;;;;;;5059195;28;20476;-78
2022/01/03 13:00:55;;;;;;;18.87;4.27;;;;;;;;;;5057486;28;20490;-79
2022/01/03 13:03:22;;;;;;;21.30;5.10;;;;;;;;;;5059486;28;20468;-78
2022/01/03 13:06:03;;;;;;;22.70;4.60;;;;;;;;;;5058431;28;20442;-78
2022/01/03 13:08:29;;;;;;;21.40;5.37;;;;;;;;;;5058626;28;20887;-79
2022/01/03 13:10:59;;;;;;;26.93;6.27;;;;;;;;;;5058957;28;20809;-80
2022/01/03 13:13:27;;;;;;;13.17;4.07;;;;;;;;;;5058087;28;20981;-78
2022/01/03 13:15:54;;;;;;;19.93;5.47;;;;;;;;;;5058495;28;20877;-79
2022/01/03 13:18:21;;;;;;;17.97;4.40;;;;;;;;;;5058968;28;20474;-78
2022/01/03 13:20:54;;;;;;;16.13;3.70;;;;;;;;;;5060938;28;20486;-79
2022/01/03 13:23:21;;;;;;;23.23;4.70;;;;;;;;;;5059433;28;20483;-79
2022/01/03 13:25:47;;;;;;;12.07;3.40;;;;;;;;;;5061192;28;20448;-79
2022/01/03 13:28:13;;;;;;;21.27;4.77;;;;;;;;;;5058537;28;20476;-79
2022/01/03 13:30:39;;;;;;;20.23;4.03;;;;;;;;;;5060469;28;20888;-79
2022/01/03 13:33:07;;;;;;;19.27;4.87;;;;;;;;;;5060791;28;20875;-80
2022/01/03 13:35:33;;;;;;;15.87;3.50;;;;;;;;;;5061645;28;20451;-80
2022/01/03 13:38:15;;;;;;;21.60;4.83;;;;;;;;;;5062142;28;20470;-77
2022/01/03 13:40:41;;;;;;;20.40;4.60;;;;;;;;;;5062151;28;20510;-81
2022/01/03 13:43:13;;;;;;;24.83;5.27;;;;;;;;;;5057952;28;20525;-79
2022/01/03 13:51:09;;;;;;;20.10;4.40;;;;;;;;;;5060121;28;20457;-77
2022/01/03 13:53:35;;;;;;;13.20;3.53;;;;;;;;;;5058601;28;21454;-78
2022/01/03 13:56:01;;;;;;;18.10;3.93;;;;;;;;;;5058402;28;20443;-79
2022/01/03 13:58:28;;;;;;;15.20;5.00;;;;;;;;;;5059204;28;20444;-79
2022/01/03 14:00:57;;;;;;;30.17;5.03;;;;;;;;;;5060562;28;20467;-79
2022/01/03 14:03:26;;;;;;;17.80;4.43;;;;;;;;;;5058207;28;20472;-79
2022/01/03 14:05:52;;;;;;;16.80;4.97;;;;;;;;;;5060179;28;20446;-78
2022/01/03 14:08:22;;;;;;;15.90;4.27;;;;;;;;;;5059789;28;20468;-79
2022/01/03 14:10:49;;;;;;;11.73;4.60;;;;;;;;;;5060369;28;20987;-80
2022/01/03 14:13:16;;;;;;;17.83;4.10;;;;;;;;;;5060494;28;20470;-79
2022/01/03 14:15:59;;;;;;;11.73;3.60;;;;;;;;;;5059937;28;20447;-79
2022/01/03 14:18:32;;;;;;;13.73;3.90;;;;;;;;;;5058405;28;20460;-79
2022/01/03 14:21:04;;;;;;;21.60;4.00;;;;;;;;;;5058573;28;20981;-79
2022/01/03 14:23:31;;;;;;;17.40;5.77;;;;;;;;;;5060152;28;20476;-79
2022/01/03 14:26:10;;;;;;;15.33;4.20;;;;;;;;;;5057651;28;20443;-79
2022/01/03 14:28:38;;;;;;;24.47;4.70;;;;;;;;;;5057904;28;20511;-79
2022/01/03 14:31:05;;;;;;;29.80;4.43;;;;;;;;;;5060908;28;20542;-79
2022/01/03 14:33:34;;;;;;;16.27;4.70;;;;;;;;;;5062601;28;20478;-79
2022/01/03 14:36:10;;;;;;;21.60;4.23;;;;;;;;;;5063665;28;20465;-79
2022/01/03 14:38:38;;;;;;;15.03;4.33;;;;;;;;;;5064231;28;20501;-79
2022/01/03 14:41:04;;;;;;;22.83;3.97;;;;;;;;;;5063286;28;20471;-79
2022/01/03 14:43:30;;;;;;;17.90;3.70;;;;;;;;;;5062776;28;20541;-79
2022/01/03 14:46:05;;;;;;;14.97;4.63;;;;;;;;;;5063431;28;20443;-79
2022/01/03 14:48:32;;;;;;;17.70;4.80;;;;;;;;;;5061872;28;20451;-79
2022/01/03 14:51:05;;;;;;;17.63;4.60;;;;;;;;;;5062415;28;20497;-80
2022/01/03 14:53:32;;;;;;;19.40;5.60;;;;;;;;;;5061613;28;20526;-79
2022/01/03 14:55:58;;;;;;;21.67;5.27;;;;;;;;;;5062102;28;20451;-79
2022/01/03 14:58:24;;;;;;;18.50;4.60;;;;;;;;;;5062272;28;20869;-79
2022/01/03 15:00:51;;;;;;;24.03;4.80;;;;;;;;;;5063502;28;20474;-79
2022/01/03 15:03:17;;;;;;;17.43;4.37;;;;;;;;;;5062508;28;20864;-79
2022/01/03 15:05:46;;;;;;;17.73;4.40;;;;;;;;;;5062511;28;20498;-78